createdAt,value
2022-09-24T00:01:59.418Z,13.42
2022-09-24T00:04:27.511Z,13.30
2022-09-24T00:06:55.337Z,13.20
2022-09-24T00:09:23.298Z,13.14
2022-09-24T00:11:52.883Z,13.15
2022-09-24T00:14:21.067Z,13.15
2022-09-24T00:16:49.064Z,13.11
2022-09-24T00:19:16.774Z,13.10
2022-09-24T00:21:44.756Z,13.06
2022-09-24T00:24:34.669Z,12.99
2022-09-24T00:27:03.527Z,12.91
2022-09-24T00:29:33.474Z,12.90
2022-09-24T00:32:01.831Z,12.90
2022-09-24T00:34:29.982Z,12.90
2022-09-24T00:36:58.588Z,12.92
2022-09-24T00:39:26.856Z,12.93
2022-09-24T00:41:55.162Z,12.95
2022-09-24T00:44:40.795Z,12.95
2022-09-24T00:47:11.578Z,12.95
2022-09-24T00:49:40.436Z,12.95
2022-09-24T00:52:08.632Z,12.95
2022-09-24T00:54:36.906Z,12.95
2022-09-24T00:57:04.822Z,12.91
2022-09-24T00:59:32.816Z,12.84
2022-09-24T01:02:02.509Z,12.80
2022-09-24T01:04:30.587Z,12.79
2022-09-24T01:06:58.977Z,12.79
2022-09-24T01:09:27.394Z,12.82
2022-09-24T01:12:02.123Z,12.85
2022-09-24T01:14:37.472Z,12.86
2022-09-24T01:17:11.098Z,12.87
2022-09-24T01:19:48.943Z,12.87
2022-09-24T01:22:23.302Z,12.86
2022-09-24T01:24:58.664Z,12.86
2022-09-24T01:27:31.602Z,12.87
2022-09-24T01:30:04.283Z,12.88
2022-09-24T01:32:36.811Z,12.90
2022-09-24T01:35:08.232Z,12.91
2022-09-24T01:37:37.687Z,12.94
2022-09-24T01:40:07.477Z,12.93
2022-09-24T01:42:37.770Z,12.91
2022-09-24T01:45:06.848Z,12.91
2022-09-24T01:47:39.227Z,12.85
2022-09-24T01:50:08.797Z,12.81
2022-09-24T01:52:40.912Z,12.84
2022-09-24T01:55:11.180Z,12.83
2022-09-24T01:57:42.153Z,12.82
2022-09-24T02:00:13.592Z,12.79
2022-09-24T02:02:45.384Z,12.74
2022-09-24T02:05:16.596Z,12.70
2022-09-24T02:07:50.080Z,12.68
2022-09-24T02:10:20.452Z,12.65
2022-09-24T02:12:50.446Z,12.63
2022-09-24T02:15:20.975Z,12.59
2022-09-24T02:17:52.826Z,12.53
2022-09-24T02:20:21.386Z,12.44
2022-09-24T02:22:50.101Z,12.39
2022-09-24T02:25:20.715Z,12.34
2022-09-24T02:27:48.541Z,12.28
2022-09-24T02:30:16.777Z,12.24
2022-09-24T02:32:44.757Z,12.19
2022-09-24T02:35:13.020Z,12.12
2022-09-24T02:37:41.690Z,12.04
2022-09-24T02:40:11.769Z,11.96
2022-09-24T02:42:40.612Z,11.87
2022-09-24T02:45:09.622Z,11.80
2022-09-24T02:47:37.770Z,11.74
2022-09-24T02:50:06.575Z,11.71
2022-09-24T02:52:34.469Z,11.72
2022-09-24T02:55:02.393Z,11.74
2022-09-24T02:57:30.264Z,11.78
2022-09-24T02:59:58.143Z,11.76
2022-09-24T03:02:26.043Z,11.66
2022-09-24T03:04:54.584Z,11.58
2022-09-24T03:07:22.410Z,11.49
2022-09-24T03:09:50.156Z,11.43
2022-09-24T03:12:17.949Z,11.37
2022-09-24T03:14:45.867Z,11.30
2022-09-24T03:17:13.583Z,11.28
2022-09-24T03:19:41.448Z,11.21
2022-09-24T03:22:09.351Z,11.14
2022-09-24T03:24:37.056Z,11.15
2022-09-24T03:27:04.931Z,11.20
2022-09-24T03:29:50.730Z,11.26
2022-09-24T03:32:18.623Z,11.30
2022-09-24T03:34:46.796Z,11.35
2022-09-24T03:37:14.622Z,11.41
2022-09-24T03:39:42.616Z,11.47
2022-09-24T03:42:10.497Z,11.51
2022-09-24T03:44:38.428Z,11.49
2022-09-24T03:47:06.348Z,11.48
2022-09-24T03:49:34.372Z,11.46
2022-09-24T03:52:02.491Z,11.46
2022-09-24T03:54:30.767Z,11.51
2022-09-24T03:56:58.624Z,11.54
2022-09-24T03:59:26.554Z,11.48
2022-09-24T04:01:54.821Z,11.40
2022-09-24T04:04:22.978Z,11.34
2022-09-24T04:06:52.257Z,11.20
2022-09-24T04:09:20.233Z,11.11
2022-09-24T04:11:48.196Z,10.98
2022-09-24T04:14:15.915Z,10.94
2022-09-24T04:16:44.740Z,10.94
2022-09-24T04:19:12.731Z,10.95
2022-09-24T04:21:40.711Z,10.98
2022-09-24T04:24:08.974Z,11.01
2022-09-24T04:26:36.895Z,11.03
2022-09-24T04:29:04.749Z,11.01
2022-09-24T04:31:32.878Z,11.02
2022-09-24T04:34:01.459Z,11.02
2022-09-24T04:36:29.434Z,10.99
2022-09-24T04:38:57.415Z,10.96
2022-09-24T04:41:25.402Z,10.95
2022-09-24T04:43:53.339Z,10.86
2022-09-24T04:46:21.297Z,10.82
2022-09-24T04:48:49.565Z,10.80
2022-09-24T04:51:18.864Z,10.81
2022-09-24T04:53:47.285Z,10.71
2022-09-24T04:56:15.032Z,10.74
2022-09-24T04:58:43.091Z,10.78
2022-09-24T05:01:12.770Z,10.82
2022-09-24T05:03:40.639Z,10.87
2022-09-24T05:06:08.632Z,10.90
2022-09-24T05:08:36.420Z,10.96
2022-09-24T05:11:04.353Z,11.02
2022-09-24T05:13:32.316Z,11.10
2022-09-24T05:16:00.432Z,11.15
2022-09-24T05:18:28.386Z,11.21
2022-09-24T05:20:56.362Z,11.31
2022-09-24T05:23:24.603Z,11.42
2022-09-24T05:26:10.565Z,11.55
2022-09-24T05:28:38.943Z,11.71
2022-09-24T05:31:08.551Z,11.87
2022-09-24T05:33:37.016Z,12.06
2022-09-24T05:36:04.971Z,12.23
2022-09-24T05:38:33.085Z,12.41
2022-09-24T05:41:00.910Z,12.61
2022-09-24T05:43:28.876Z,12.82
2022-09-24T05:45:58.138Z,13.04
2022-09-24T05:48:26.165Z,13.28
2022-09-24T05:50:55.839Z,13.55
2022-09-24T05:53:24.931Z,13.84
2022-09-24T05:55:52.865Z,14.14
2022-09-24T05:58:20.963Z,14.45
2022-09-24T06:00:49.342Z,14.79
2022-09-24T06:03:18.480Z,15.13
2022-09-24T06:05:48.052Z,15.55
2022-09-24T06:08:16.247Z,16.03
2022-09-24T06:10:45.223Z,16.51
2022-09-24T06:13:13.570Z,16.96
2022-09-24T06:15:42.148Z,17.35
2022-09-24T06:18:10.482Z,17.71
2022-09-24T06:20:39.639Z,18.00
2022-09-24T06:23:07.735Z,18.33
2022-09-24T06:25:35.726Z,18.57
2022-09-24T06:28:04.588Z,18.71
2022-09-24T06:30:34.142Z,18.91
2022-09-24T06:33:04.813Z,19.23
2022-09-24T06:35:35.079Z,19.47
2022-09-24T06:38:02.873Z,19.67
2022-09-24T06:40:36.204Z,19.70
2022-09-24T06:43:06.031Z,19.77
2022-09-24T06:45:34.254Z,19.78
2022-09-24T06:48:03.613Z,19.50
2022-09-24T06:50:32.371Z,19.39
2022-09-24T06:53:00.387Z,19.36
2022-09-24T06:55:28.129Z,19.17
2022-09-24T06:58:06.080Z,19.26
2022-09-24T07:00:34.222Z,19.42
2022-09-24T07:03:02.459Z,19.62
2022-09-24T07:05:30.254Z,19.83
2022-09-24T07:07:58.100Z,19.91
2022-09-24T07:10:27.497Z,19.96
2022-09-24T07:12:55.546Z,20.13
2022-09-24T07:15:23.757Z,20.24
2022-09-24T07:17:55.494Z,20.14
2022-09-24T07:20:23.723Z,20.11
2022-09-24T07:22:51.663Z,20.21
2022-09-24T07:25:19.542Z,20.20
2022-09-24T07:27:47.908Z,20.08
2022-09-24T07:30:16.407Z,20.23
2022-09-24T07:32:44.335Z,20.49
2022-09-24T07:35:12.256Z,20.70
2022-09-24T07:37:40.098Z,20.66
2022-09-24T07:40:09.550Z,20.69
2022-09-24T07:42:38.684Z,20.75
2022-09-24T07:45:07.963Z,20.76
2022-09-24T07:47:35.932Z,20.56
2022-09-24T07:50:04.404Z,20.52
2022-09-24T07:52:32.316Z,20.53
2022-09-24T07:55:00.286Z,20.54
2022-09-24T07:57:28.252Z,20.67
2022-09-24T07:59:56.101Z,20.83
2022-09-24T08:02:24.479Z,21.02
2022-09-24T08:04:52.691Z,21.27
2022-09-24T08:07:20.603Z,21.46
2022-09-24T08:09:48.558Z,21.58
2022-09-24T08:12:16.515Z,21.57
2022-09-24T08:14:44.603Z,21.53
2022-09-24T08:17:13.005Z,21.45
2022-09-24T08:19:42.728Z,21.60
2022-09-24T08:22:11.913Z,21.77
2022-09-24T08:24:40.003Z,21.70
2022-09-24T08:27:07.908Z,21.63
2022-09-24T08:29:36.446Z,21.32
2022-09-24T08:32:04.692Z,21.11
2022-09-24T08:34:37.820Z,21.25
2022-09-24T08:37:05.773Z,21.25
2022-09-24T08:39:33.895Z,21.20
2022-09-24T08:42:04.076Z,21.19
2022-09-24T08:44:54.903Z,21.36
2022-09-24T08:47:31.736Z,21.42
2022-09-24T08:50:03.010Z,21.39
2022-09-24T08:52:36.622Z,21.36
2022-09-24T08:55:07.755Z,21.54
2022-09-24T08:57:38.388Z,21.70
2022-09-24T09:00:07.675Z,21.93
2022-09-24T09:02:40.946Z,22.08
2022-09-24T09:05:15.791Z,21.96
2022-09-24T09:07:49.274Z,22.06
2022-09-24T09:10:25.750Z,22.25
2022-09-24T09:12:55.207Z,22.23
2022-09-24T09:15:25.354Z,21.97
2022-09-24T09:17:57.045Z,21.92
2022-09-24T09:20:27.690Z,21.99
2022-09-24T09:22:58.303Z,22.10
2022-09-24T09:25:28.008Z,22.34
2022-09-24T09:27:58.857Z,22.66
2022-09-24T09:30:29.769Z,22.79
2022-09-24T09:33:04.072Z,22.81
2022-09-24T09:35:35.965Z,22.58
2022-09-24T09:38:07.421Z,22.37
2022-09-24T09:40:36.124Z,22.23
2022-09-24T09:43:05.223Z,22.07
2022-09-24T09:45:36.570Z,22.11
2022-09-24T09:48:05.027Z,22.26
2022-09-24T09:50:36.280Z,22.10
2022-09-24T09:53:04.346Z,21.80
2022-09-24T09:55:34.185Z,21.67
2022-09-24T09:58:09.801Z,21.67
2022-09-24T10:00:38.311Z,21.61
2022-09-24T10:03:06.368Z,21.62
2022-09-24T10:05:34.552Z,21.52
2022-09-24T10:08:02.285Z,21.63
2022-09-24T10:10:30.464Z,21.74
2022-09-24T10:13:08.684Z,21.83
2022-09-24T10:15:45.265Z,21.98
2022-09-24T10:18:14.740Z,22.03
2022-09-24T10:20:46.153Z,22.02
2022-09-24T10:23:18.906Z,22.03
2022-09-24T10:25:51.468Z,22.10
2022-09-24T10:28:38.396Z,22.09
2022-09-24T10:31:10.256Z,22.14
2022-09-24T10:33:38.793Z,22.00
2022-09-24T10:36:07.722Z,21.75
2022-09-24T10:38:35.638Z,21.81
2022-09-24T10:41:12.949Z,21.82
2022-09-24T10:43:49.789Z,21.67
2022-09-24T10:46:21.031Z,21.61
2022-09-24T10:48:54.228Z,21.83
2022-09-24T10:51:29.557Z,21.86
2022-09-24T10:54:03.419Z,21.82
2022-09-24T10:56:34.434Z,21.62
2022-09-24T10:59:16.428Z,21.44
2022-09-24T11:01:48.763Z,21.18
2022-09-24T11:04:22.507Z,20.90
2022-09-24T11:06:57.681Z,20.64
2022-09-24T11:09:31.381Z,20.41
2022-09-24T11:12:04.773Z,20.30
2022-09-24T11:14:44.553Z,20.33
2022-09-24T11:17:25.201Z,20.10
2022-09-24T11:20:04.874Z,19.91
2022-09-24T11:22:37.519Z,19.86
2022-09-24T11:25:18.079Z,19.81
2022-09-24T11:27:50.702Z,19.65
2022-09-24T11:30:19.646Z,19.58
2022-09-24T11:32:59.183Z,19.62
2022-09-24T11:35:35.461Z,19.63
2022-09-24T11:38:08.239Z,19.59
2022-09-24T11:40:42.463Z,19.57
2022-09-24T11:43:21.163Z,19.47
2022-09-24T11:45:58.598Z,19.42
2022-09-24T11:48:40.867Z,19.46
2022-09-24T11:51:14.881Z,19.45
2022-09-24T11:53:44.717Z,19.40
2022-09-24T11:56:17.859Z,19.32
2022-09-24T11:58:48.707Z,19.25
2022-09-24T12:01:20.173Z,19.27
2022-09-24T12:03:52.877Z,19.26
2022-09-24T12:06:24.539Z,19.28
2022-09-24T12:08:55.817Z,19.27
2022-09-24T12:11:30.372Z,19.28
2022-09-24T12:14:01.946Z,19.22
2022-09-24T12:16:33.098Z,19.20
2022-09-24T12:19:05.552Z,19.21
2022-09-24T12:21:36.214Z,19.16
2022-09-24T12:24:06.742Z,19.17
2022-09-24T12:26:37.547Z,19.22
2022-09-24T12:29:35.653Z,19.26
2022-09-24T12:32:24.421Z,19.28
2022-09-24T12:34:56.488Z,19.27
2022-09-24T12:37:29.110Z,19.25
2022-09-24T12:40:01.453Z,19.29
2022-09-24T12:42:32.536Z,19.32
2022-09-24T12:45:01.202Z,19.33
2022-09-24T12:47:32.668Z,19.28
2022-09-24T12:50:01.866Z,19.27
2022-09-24T12:52:35.065Z,19.32
2022-09-24T12:55:03.752Z,19.39
2022-09-24T12:57:35.134Z,19.45
2022-09-24T13:00:05.268Z,19.49
2022-09-24T13:02:45.120Z,19.53
2022-09-24T13:05:18.997Z,19.53
2022-09-24T13:07:56.858Z,19.44
2022-09-24T13:10:26.591Z,19.41
2022-09-24T13:12:55.766Z,19.45
2022-09-24T13:15:34.491Z,19.48
2022-09-24T13:18:04.130Z,19.51
2022-09-24T13:20:33.389Z,19.46
2022-09-24T13:23:12.222Z,19.43
2022-09-24T13:25:41.020Z,19.45
2022-09-24T13:28:21.210Z,19.49
2022-09-24T13:30:51.867Z,19.52
2022-09-24T13:33:24.587Z,19.57
2022-09-24T13:36:02.832Z,19.60
2022-09-24T13:38:33.457Z,19.57
2022-09-24T13:41:04.464Z,19.57
2022-09-24T13:43:39.634Z,19.57
2022-09-24T13:46:15.845Z,19.58
2022-09-24T13:48:47.424Z,19.59
2022-09-24T13:51:16.763Z,19.61
2022-09-24T13:53:49.103Z,19.60
2022-09-24T13:56:18.836Z,19.59
2022-09-24T13:58:46.958Z,19.60
2022-09-24T14:01:16.655Z,19.58
2022-09-24T14:03:53.468Z,19.55
2022-09-24T14:06:30.576Z,19.50
2022-09-24T14:08:58.487Z,19.49
2022-09-24T14:11:26.906Z,19.49
2022-09-24T14:13:55.808Z,19.46
2022-09-24T14:16:24.137Z,19.43
2022-09-24T14:19:02.373Z,19.43
2022-09-24T14:21:32.965Z,19.46
2022-09-24T14:24:03.332Z,19.46
2022-09-24T14:26:34.156Z,19.42
2022-09-24T14:29:05.590Z,19.36
2022-09-24T14:31:41.901Z,19.34
2022-09-24T14:34:22.151Z,19.30
2022-09-24T14:36:50.954Z,19.27
2022-09-24T14:39:18.864Z,19.23
2022-09-24T14:41:46.756Z,19.21
2022-09-24T14:44:20.869Z,19.25
2022-09-24T14:46:49.985Z,19.29
2022-09-24T14:49:20.291Z,19.33
2022-09-24T14:51:51.966Z,19.35
2022-09-24T14:54:21.794Z,19.33
2022-09-24T14:56:49.628Z,19.33
2022-09-24T14:59:27.727Z,19.35
2022-09-24T15:02:03.675Z,19.34
2022-09-24T15:04:31.573Z,19.28
2022-09-24T15:06:59.457Z,19.25
2022-09-24T15:09:28.515Z,19.25
2022-09-24T15:12:06.543Z,19.25
2022-09-24T15:14:35.548Z,19.21
2022-09-24T15:17:09.849Z,19.19
2022-09-24T15:19:42.532Z,19.18
2022-09-24T15:22:10.487Z,19.18
2022-09-24T15:24:38.311Z,19.19
2022-09-24T15:27:07.359Z,19.18
2022-09-24T15:29:36.406Z,19.17
2022-09-24T15:32:12.506Z,19.15
2022-09-24T15:34:40.336Z,19.13
2022-09-24T15:37:10.670Z,19.13
2022-09-24T15:39:39.360Z,19.12
2022-09-24T15:42:08.407Z,19.10
2022-09-24T15:44:36.347Z,19.07
2022-09-24T15:47:04.179Z,19.02
2022-09-24T15:49:32.060Z,18.99
2022-09-24T15:52:01.976Z,18.93
2022-09-24T15:54:29.784Z,18.92
2022-09-24T15:56:58.257Z,18.91
2022-09-24T15:59:27.235Z,18.91
2022-09-24T16:01:57.784Z,18.91
2022-09-24T16:04:25.749Z,18.90
2022-09-24T16:06:53.627Z,18.86
2022-09-24T16:09:21.513Z,18.82
2022-09-24T16:11:49.467Z,18.78
2022-09-24T16:14:17.440Z,18.72
2022-09-24T16:16:45.318Z,18.67
2022-09-24T16:19:13.533Z,18.60
2022-09-24T16:21:41.450Z,18.51
2022-09-24T16:24:09.294Z,18.44
2022-09-24T16:26:38.072Z,18.37
2022-09-24T16:29:08.223Z,18.28
2022-09-24T16:31:36.077Z,18.20
2022-09-24T16:34:03.930Z,18.11
2022-09-24T16:36:31.944Z,18.05
2022-09-24T16:39:00.195Z,18.00
2022-09-24T16:41:33.658Z,17.95
2022-09-24T16:44:01.794Z,17.86
2022-09-24T16:46:30.460Z,17.82
2022-09-24T16:48:58.408Z,17.76
2022-09-24T16:51:26.284Z,17.72
2022-09-24T16:53:55.264Z,17.66
2022-09-24T16:56:23.411Z,17.58
2022-09-24T16:58:51.908Z,17.54
2022-09-24T17:01:21.154Z,17.49
2022-09-24T17:03:51.857Z,17.42
2022-09-24T17:06:20.510Z,17.34
2022-09-24T17:09:06.961Z,17.27
2022-09-24T17:11:35.395Z,17.22
2022-09-24T17:14:03.271Z,17.16
2022-09-24T17:16:31.381Z,17.12
2022-09-24T17:18:59.925Z,17.09
2022-09-24T17:21:27.876Z,17.05
2022-09-24T17:23:55.771Z,16.98
2022-09-24T17:26:24.466Z,16.93
2022-09-24T17:28:53.160Z,16.88
2022-09-24T17:31:22.351Z,16.85
2022-09-24T17:33:55.647Z,16.81
2022-09-24T17:36:23.993Z,16.74
2022-09-24T17:38:51.847Z,16.69
2022-09-24T17:41:19.740Z,16.60
2022-09-24T17:43:47.624Z,16.55
2022-09-24T17:46:16.534Z,16.49
2022-09-24T17:48:46.091Z,16.45
2022-09-24T17:51:14.972Z,16.40
2022-09-24T17:53:43.044Z,16.35
2022-09-24T17:56:12.376Z,16.30
2022-09-24T17:58:40.779Z,16.27
2022-09-24T18:01:10.009Z,16.25
2022-09-24T18:03:38.601Z,16.22
2022-09-24T18:06:07.634Z,16.20
2022-09-24T18:08:36.941Z,16.18
2022-09-24T18:11:05.841Z,16.15
2022-09-24T18:13:34.165Z,16.13
2022-09-24T18:16:05.558Z,16.10
2022-09-24T18:18:33.685Z,16.07
2022-09-24T18:21:02.120Z,16.01
2022-09-24T18:23:30.508Z,15.96
2022-09-24T18:26:09.854Z,15.93
2022-09-24T18:28:38.543Z,15.88
2022-09-24T18:31:07.898Z,15.85
2022-09-24T18:33:36.857Z,15.83
2022-09-24T18:36:06.604Z,15.80
2022-09-24T18:38:34.804Z,15.75
2022-09-24T18:41:08.724Z,15.72
2022-09-24T18:43:36.799Z,15.70
2022-09-24T18:46:05.603Z,15.67
2022-09-24T18:48:33.510Z,15.64
2022-09-24T18:51:01.869Z,15.60
2022-09-24T18:53:30.821Z,15.57
2022-09-24T18:55:59.348Z,15.54
2022-09-24T18:58:27.360Z,15.51
2022-09-24T19:00:58.623Z,15.47
2022-09-24T19:03:27.879Z,15.44
2022-09-24T19:05:59.412Z,15.40
2022-09-24T19:08:28.039Z,15.34
2022-09-24T19:11:00.471Z,15.31
2022-09-24T19:13:28.355Z,15.29
2022-09-24T19:15:56.275Z,15.26
2022-09-24T19:18:24.247Z,15.22
2022-09-24T19:20:52.781Z,15.18
2022-09-24T19:23:20.647Z,15.15
2022-09-24T19:25:48.710Z,15.12
2022-09-24T19:28:16.485Z,15.07
2022-09-24T19:30:45.371Z,15.05
2022-09-24T19:33:15.406Z,15.01
2022-09-24T19:35:52.027Z,14.98
2022-09-24T19:38:21.675Z,14.95
2022-09-24T19:40:56.680Z,14.92
2022-09-24T19:43:24.818Z,14.87
2022-09-24T19:45:57.573Z,14.84
2022-09-24T19:48:26.183Z,14.81
2022-09-24T19:50:54.604Z,14.77
2022-09-24T19:53:22.384Z,14.74
2022-09-24T19:55:50.380Z,14.71
2022-09-24T19:58:18.258Z,14.71
2022-09-24T20:00:46.128Z,14.73
2022-09-24T20:03:15.115Z,14.71
2022-09-24T20:05:43.129Z,14.68
2022-09-24T20:08:12.036Z,14.64
2022-09-24T20:10:40.715Z,14.62
2022-09-24T20:13:10.066Z,14.61
2022-09-24T20:15:38.263Z,14.60
2022-09-24T20:18:06.843Z,14.59
2022-09-24T20:20:34.954Z,14.59
2022-09-24T20:23:02.816Z,14.56
2022-09-24T20:25:48.090Z,14.54
2022-09-24T20:28:16.096Z,14.52
2022-09-24T20:30:44.107Z,14.49
2022-09-24T20:33:12.631Z,14.48
2022-09-24T20:35:41.523Z,14.45
2022-09-24T20:38:09.694Z,14.45
2022-09-24T20:40:40.684Z,14.44
2022-09-24T20:43:08.739Z,14.43
2022-09-24T20:45:40.768Z,14.43
2022-09-24T20:48:08.636Z,14.42
2022-09-24T20:50:36.467Z,14.42
2022-09-24T20:53:04.307Z,14.43
2022-09-24T20:55:32.426Z,14.42
2022-09-24T20:58:00.677Z,14.42
2022-09-24T21:00:35.049Z,14.41
2022-09-24T21:03:15.468Z,14.39
2022-09-24T21:05:51.778Z,14.29
2022-09-24T21:08:19.711Z,14.21
2022-09-24T21:10:47.516Z,14.21
2022-09-24T21:13:15.383Z,14.23
2022-09-24T21:15:43.373Z,14.26
2022-09-24T21:18:22.863Z,14.29
2022-09-24T21:20:52.063Z,14.29
2022-09-24T21:23:21.484Z,14.28
2022-09-24T21:25:54.446Z,14.27
2022-09-24T21:28:23.174Z,14.26
2022-09-24T21:30:57.304Z,14.25
2022-09-24T21:33:25.324Z,14.21
2022-09-24T21:35:53.899Z,14.18
2022-09-24T21:38:21.631Z,14.15
2022-09-24T21:40:53.090Z,14.13
2022-09-24T21:43:23.043Z,14.05
2022-09-24T21:45:52.011Z,14.01
2022-09-24T21:48:19.894Z,14.00
2022-09-24T21:50:47.822Z,13.99
2022-09-24T21:53:15.754Z,13.97
2022-09-24T21:55:47.801Z,13.95
2022-09-24T21:58:15.664Z,13.95
2022-09-24T22:00:43.397Z,13.94
2022-09-24T22:03:11.792Z,13.91
2022-09-24T22:05:42.341Z,13.87
2022-09-24T22:08:12.371Z,13.81
2022-09-24T22:10:40.943Z,13.74
2022-09-24T22:13:09.316Z,13.69
2022-09-24T22:15:37.186Z,13.65
2022-09-24T22:18:05.413Z,13.63
2022-09-24T22:20:33.252Z,13.57
2022-09-24T22:23:00.970Z,13.52
2022-09-24T22:25:28.880Z,13.50
2022-09-24T22:27:56.741Z,13.42
2022-09-24T22:30:24.733Z,13.37
2022-09-24T22:32:52.694Z,13.36
2022-09-24T22:35:50.005Z,13.36
2022-09-24T22:38:18.313Z,13.35
2022-09-24T22:40:46.150Z,13.36
2022-09-24T22:43:14.036Z,13.37
2022-09-24T22:45:42.876Z,13.38
2022-09-24T22:48:10.767Z,13.36
2022-09-24T22:50:38.553Z,13.35
2022-09-24T22:53:06.517Z,13.34
2022-09-24T22:55:34.380Z,13.29
2022-09-24T22:58:02.244Z,13.21
2022-09-24T23:00:30.040Z,13.17
2022-09-24T23:02:57.945Z,13.12
2022-09-24T23:05:26.250Z,13.09
2022-09-24T23:07:54.153Z,13.05
2022-09-24T23:10:21.995Z,12.99
2022-09-24T23:12:49.908Z,12.98
2022-09-24T23:15:18.607Z,12.97
2022-09-24T23:17:47.238Z,12.94
2022-09-24T23:20:16.199Z,12.91
2022-09-24T23:22:44.096Z,12.87
2022-09-24T23:25:12.165Z,12.80
2022-09-24T23:27:39.919Z,12.81
2022-09-24T23:30:09.121Z,12.79
2022-09-24T23:32:36.979Z,12.78
2022-09-24T23:35:05.595Z,12.76
2022-09-24T23:37:33.446Z,12.75
2022-09-24T23:40:02.019Z,12.78
2022-09-24T23:42:30.808Z,12.80
2022-09-24T23:44:58.718Z,12.81
2022-09-24T23:47:26.542Z,12.83
2022-09-24T23:49:54.640Z,12.84
2022-09-24T23:52:22.640Z,12.83
2022-09-24T23:54:50.597Z,12.81
2022-09-24T23:57:18.486Z,12.78
2022-09-24T23:59:46.433Z,12.77
